sensor_id;sensor_type;location;lat;lon;timestamp;P1;durP1;ratioP1;P2;durP2;ratioP2
64351;SDS011;50680;52.626;-8.668;2023-04-19T00:02:01;37.25;;;15.85;;
64351;SDS011;50680;52.626;-8.668;2023-04-19T00:04:28;31.88;;;15.65;;
64351;SDS011;50680;52.626;-8.668;2023-04-19T00:06:55;27.77;;;16.00;;
64351;SDS011;50680;52.626;-8.668;2023-04-19T00:09:23;34.85;;;15.55;;
64351;SDS011;50680;52.626;-8.668;2023-04-19T00:11:51;37.33;;;16.70;;
64351;SDS011;50680;52.626;-8.668;2023-04-19T00:14:18;36.42;;;16.58;;
64351;SDS011;50680;52.626;-8.668;2023-04-19T00:16:45;33.13;;;15.65;;
64351;SDS011;50680;52.626;-8.668;2023-04-19T00:19:12;35.85;;;16.25;;
64351;SDS011;50680;52.626;-8.668;2023-04-19T00:21:39;39.08;;;17.05;;
64351;SDS011;50680;52.626;-8.668;2023-04-19T00:24:06;33.47;;;16.48;;
64351;SDS011;50680;52.626;-8.668;2023-04-19T00:26:33;37.35;;;17.00;;
64351;SDS011;50680;52.626;-8.668;2023-04-19T00:29:00;34.20;;;16.92;;
64351;SDS011;50680;52.626;-8.668;2023-04-19T00:31:27;31.63;;;15.57;;
64351;SDS011;50680;52.626;-8.668;2023-04-19T00:33:55;35.55;;;16.70;;
64351;SDS011;50680;52.626;-8.668;2023-04-19T00:36:22;37.83;;;16.92;;
64351;SDS011;50680;52.626;-8.668;2023-04-19T00:38:49;33.58;;;16.30;;
64351;SDS011;50680;52.626;-8.668;2023-04-19T00:41:15;34.65;;;17.08;;
64351;SDS011;50680;52.626;-8.668;2023-04-19T00:43:42;31.58;;;16.02;;
64351;SDS011;50680;52.626;-8.668;2023-04-19T00:46:09;36.15;;;17.27;;
64351;SDS011;50680;52.626;-8.668;2023-04-19T00:48:36;35.53;;;16.48;;
64351;SDS011;50680;52.626;-8.668;2023-04-19T00:51:03;33.75;;;17.30;;
64351;SDS011;50680;52.626;-8.668;2023-04-19T00:53:30;33.47;;;17.48;;
64351;SDS011;50680;52.626;-8.668;2023-04-19T00:55:59;40.08;;;18.25;;
64351;SDS011;50680;52.626;-8.668;2023-04-19T00:58:29;38.42;;;17.48;;
64351;SDS011;50680;52.626;-8.668;2023-04-19T01:00:57;33.08;;;16.80;;
64351;SDS011;50680;52.626;-8.668;2023-04-19T01:03:25;33.65;;;16.83;;
64351;SDS011;50680;52.626;-8.668;2023-04-19T01:05:55;33.42;;;17.02;;
64351;SDS011;50680;52.626;-8.668;2023-04-19T01:08:22;34.80;;;16.25;;
64351;SDS011;50680;52.626;-8.668;2023-04-19T01:10:49;38.47;;;18.60;;
64351;SDS011;50680;52.626;-8.668;2023-04-19T01:13:16;34.72;;;17.08;;
64351;SDS011;50680;52.626;-8.668;2023-04-19T01:15:43;38.15;;;17.10;;
64351;SDS011;50680;52.626;-8.668;2023-04-19T01:18:10;36.47;;;17.73;;
64351;SDS011;50680;52.626;-8.668;2023-04-19T01:20:36;37.83;;;16.52;;
64351;SDS011;50680;52.626;-8.668;2023-04-19T01:23:03;33.13;;;17.20;;
64351;SDS011;50680;52.626;-8.668;2023-04-19T01:25:30;30.48;;;16.33;;
64351;SDS011;50680;52.626;-8.668;2023-04-19T01:27:57;33.72;;;16.90;;
64351;SDS011;50680;52.626;-8.668;2023-04-19T01:30:24;29.92;;;15.45;;
64351;SDS011;50680;52.626;-8.668;2023-04-19T01:32:50;32.50;;;16.55;;
64351;SDS011;50680;52.626;-8.668;2023-04-19T01:35:17;34.83;;;17.65;;
64351;SDS011;50680;52.626;-8.668;2023-04-19T01:37:44;33.67;;;17.00;;
64351;SDS011;50680;52.626;-8.668;2023-04-19T01:40:11;29.63;;;16.00;;
64351;SDS011;50680;52.626;-8.668;2023-04-19T01:42:38;32.10;;;15.95;;
64351;SDS011;50680;52.626;-8.668;2023-04-19T01:45:05;35.03;;;15.48;;
64351;SDS011;50680;52.626;-8.668;2023-04-19T01:47:32;33.65;;;15.57;;
64351;SDS011;50680;52.626;-8.668;2023-04-19T01:49:59;30.52;;;15.80;;
64351;SDS011;50680;52.626;-8.668;2023-04-19T01:52:26;30.92;;;15.95;;
64351;SDS011;50680;52.626;-8.668;2023-04-19T01:54:52;29.10;;;14.98;;
64351;SDS011;50680;52.626;-8.668;2023-04-19T01:57:19;34.95;;;16.35;;
64351;SDS011;50680;52.626;-8.668;2023-04-19T01:59:46;31.65;;;15.57;;
64351;SDS011;50680;52.626;-8.668;2023-04-19T02:02:13;30.05;;;14.52;;
64351;SDS011;50680;52.626;-8.668;2023-04-19T02:04:39;36.67;;;15.25;;
64351;SDS011;50680;52.626;-8.668;2023-04-19T02:07:06;36.47;;;16.27;;
64351;SDS011;50680;52.626;-8.668;2023-04-19T02:09:34;30.00;;;15.65;;
64351;SDS011;50680;52.626;-8.668;2023-04-19T02:12:02;29.08;;;15.13;;
64351;SDS011;50680;52.626;-8.668;2023-04-19T02:14:29;30.63;;;15.13;;
64351;SDS011;50680;52.626;-8.668;2023-04-19T02:16:57;35.40;;;17.70;;
64351;SDS011;50680;52.626;-8.668;2023-04-19T02:19:24;33.35;;;15.32;;
64351;SDS011;50680;52.626;-8.668;2023-04-19T02:21:50;31.20;;;14.98;;
64351;SDS011;50680;52.626;-8.668;2023-04-19T02:24:18;27.80;;;15.57;;
64351;SDS011;50680;52.626;-8.668;2023-04-19T02:26:45;33.58;;;15.50;;
64351;SDS011;50680;52.626;-8.668;2023-04-19T02:29:12;33.85;;;15.48;;
64351;SDS011;50680;52.626;-8.668;2023-04-19T02:31:39;30.27;;;14.73;;
64351;SDS011;50680;52.626;-8.668;2023-04-19T02:34:06;28.88;;;14.63;;
64351;SDS011;50680;52.626;-8.668;2023-04-19T02:36:33;31.42;;;15.80;;
64351;SDS011;50680;52.626;-8.668;2023-04-19T02:39:00;30.08;;;15.00;;
64351;SDS011;50680;52.626;-8.668;2023-04-19T02:41:26;28.42;;;14.75;;
64351;SDS011;50680;52.626;-8.668;2023-04-19T02:43:53;28.48;;;14.68;;
64351;SDS011;50680;52.626;-8.668;2023-04-19T02:46:21;29.90;;;14.25;;
64351;SDS011;50680;52.626;-8.668;2023-04-19T02:48:48;30.70;;;16.02;;
64351;SDS011;50680;52.626;-8.668;2023-04-19T02:51:15;31.55;;;14.68;;
64351;SDS011;50680;52.626;-8.668;2023-04-19T02:53:42;35.83;;;14.90;;
64351;SDS011;50680;52.626;-8.668;2023-04-19T02:56:09;32.50;;;16.10;;
64351;SDS011;50680;52.626;-8.668;2023-04-19T02:58:36;29.85;;;14.85;;
64351;SDS011;50680;52.626;-8.668;2023-04-19T03:01:03;39.50;;;15.52;;
64351;SDS011;50680;52.626;-8.668;2023-04-19T03:03:30;29.92;;;14.02;;
64351;SDS011;50680;52.626;-8.668;2023-04-19T03:05:57;30.63;;;14.75;;
64351;SDS011;50680;52.626;-8.668;2023-04-19T03:08:23;34.78;;;16.42;;
64351;SDS011;50680;52.626;-8.668;2023-04-19T03:10:50;28.48;;;14.80;;
64351;SDS011;50680;52.626;-8.668;2023-04-19T03:13:17;31.48;;;15.88;;
64351;SDS011;50680;52.626;-8.668;2023-04-19T03:15:44;29.20;;;14.15;;
64351;SDS011;50680;52.626;-8.668;2023-04-19T03:18:11;30.63;;;14.80;;
64351;SDS011;50680;52.626;-8.668;2023-04-19T03:20:38;34.20;;;16.25;;
64351;SDS011;50680;52.626;-8.668;2023-04-19T03:23:05;26.55;;;13.55;;
64351;SDS011;50680;52.626;-8.668;2023-04-19T03:25:31;29.33;;;13.70;;
64351;SDS011;50680;52.626;-8.668;2023-04-19T03:27:58;27.83;;;14.38;;
64351;SDS011;50680;52.626;-8.668;2023-04-19T03:30:25;25.50;;;13.57;;
64351;SDS011;50680;52.626;-8.668;2023-04-19T03:32:52;26.13;;;14.20;;
64351;SDS011;50680;52.626;-8.668;2023-04-19T03:35:19;28.65;;;13.82;;
64351;SDS011;50680;52.626;-8.668;2023-04-19T03:37:46;24.73;;;12.75;;
64351;SDS011;50680;52.626;-8.668;2023-04-19T03:40:13;21.33;;;12.82;;
64351;SDS011;50680;52.626;-8.668;2023-04-19T03:42:40;24.90;;;12.13;;
64351;SDS011;50680;52.626;-8.668;2023-04-19T03:45:06;24.23;;;13.48;;
64351;SDS011;50680;52.626;-8.668;2023-04-19T03:47:34;27.45;;;12.15;;
64351;SDS011;50680;52.626;-8.668;2023-04-19T03:50:01;27.55;;;12.45;;
64351;SDS011;50680;52.626;-8.668;2023-04-19T03:52:28;27.67;;;13.20;;
64351;SDS011;50680;52.626;-8.668;2023-04-19T03:54:55;29.10;;;12.77;;
64351;SDS011;50680;52.626;-8.668;2023-04-19T03:57:22;24.08;;;12.60;;
64351;SDS011;50680;52.626;-8.668;2023-04-19T03:59:49;21.70;;;12.15;;
64351;SDS011;50680;52.626;-8.668;2023-04-19T04:02:16;21.95;;;12.23;;
64351;SDS011;50680;52.626;-8.668;2023-04-19T04:04:43;21.00;;;11.05;;
64351;SDS011;50680;52.626;-8.668;2023-04-19T04:07:10;25.95;;;11.38;;
64351;SDS011;50680;52.626;-8.668;2023-04-19T04:09:37;22.20;;;10.50;;
64351;SDS011;50680;52.626;-8.668;2023-04-19T04:12:03;22.23;;;11.50;;
64351;SDS011;50680;52.626;-8.668;2023-04-19T04:14:30;22.50;;;11.93;;
64351;SDS011;50680;52.626;-8.668;2023-04-19T04:16:57;23.02;;;11.02;;
64351;SDS011;50680;52.626;-8.668;2023-04-19T04:19:24;21.33;;;12.02;;
64351;SDS011;50680;52.626;-8.668;2023-04-19T04:21:51;25.73;;;11.48;;
64351;SDS011;50680;52.626;-8.668;2023-04-19T04:24:18;25.05;;;10.82;;
64351;SDS011;50680;52.626;-8.668;2023-04-19T04:26:45;25.00;;;11.20;;
64351;SDS011;50680;52.626;-8.668;2023-04-19T04:29:12;23.33;;;11.52;;
64351;SDS011;50680;52.626;-8.668;2023-04-19T04:31:39;22.67;;;11.48;;
64351;SDS011;50680;52.626;-8.668;2023-04-19T04:34:06;19.42;;;10.38;;
64351;SDS011;50680;52.626;-8.668;2023-04-19T04:36:35;18.95;;;9.55;;
64351;SDS011;50680;52.626;-8.668;2023-04-19T04:39:03;20.13;;;10.85;;
64351;SDS011;50680;52.626;-8.668;2023-04-19T04:41:31;21.75;;;10.18;;
64351;SDS011;50680;52.626;-8.668;2023-04-19T04:43:58;22.60;;;11.27;;
64351;SDS011;50680;52.626;-8.668;2023-04-19T04:46:37;27.23;;;10.40;;
64351;SDS011;50680;52.626;-8.668;2023-04-19T04:49:04;35.15;;;10.95;;
64351;SDS011;50680;52.626;-8.668;2023-04-19T04:51:31;21.45;;;11.05;;
64351;SDS011;50680;52.626;-8.668;2023-04-19T04:53:59;29.23;;;10.60;;
64351;SDS011;50680;52.626;-8.668;2023-04-19T04:56:26;24.98;;;10.45;;
64351;SDS011;50680;52.626;-8.668;2023-04-19T04:58:53;22.45;;;11.35;;
64351;SDS011;50680;52.626;-8.668;2023-04-19T05:01:20;26.98;;;11.20;;
64351;SDS011;50680;52.626;-8.668;2023-04-19T05:03:48;20.58;;;10.75;;
64351;SDS011;50680;52.626;-8.668;2023-04-19T05:06:16;24.23;;;11.05;;
64351;SDS011;50680;52.626;-8.668;2023-04-19T05:08:43;18.35;;;11.20;;
64351;SDS011;50680;52.626;-8.668;2023-04-19T05:11:10;24.65;;;10.32;;
64351;SDS011;50680;52.626;-8.668;2023-04-19T05:13:37;21.58;;;10.45;;
64351;SDS011;50680;52.626;-8.668;2023-04-19T05:16:04;19.75;;;9.85;;
64351;SDS011;50680;52.626;-8.668;2023-04-19T05:18:31;27.27;;;10.95;;
64351;SDS011;50680;52.626;-8.668;2023-04-19T05:20:58;19.98;;;9.57;;
64351;SDS011;50680;52.626;-8.668;2023-04-19T05:23:25;19.55;;;10.10;;
64351;SDS011;50680;52.626;-8.668;2023-04-19T05:25:52;17.42;;;9.50;;
64351;SDS011;50680;52.626;-8.668;2023-04-19T05:28:19;20.02;;;10.27;;
64351;SDS011;50680;52.626;-8.668;2023-04-19T05:30:46;19.85;;;9.25;;
64351;SDS011;50680;52.626;-8.668;2023-04-19T05:33:13;18.65;;;10.15;;
64351;SDS011;50680;52.626;-8.668;2023-04-19T05:35:39;19.00;;;9.43;;
64351;SDS011;50680;52.626;-8.668;2023-04-19T05:38:06;17.48;;;9.30;;
64351;SDS011;50680;52.626;-8.668;2023-04-19T05:40:33;17.70;;;9.70;;
64351;SDS011;50680;52.626;-8.668;2023-04-19T05:43:01;17.52;;;8.65;;
64351;SDS011;50680;52.626;-8.668;2023-04-19T05:45:27;20.75;;;9.38;;
64351;SDS011;50680;52.626;-8.668;2023-04-19T05:47:54;23.90;;;9.43;;
64351;SDS011;50680;52.626;-8.668;2023-04-19T05:50:21;25.50;;;9.57;;
64351;SDS011;50680;52.626;-8.668;2023-04-19T05:52:48;18.73;;;9.30;;
64351;SDS011;50680;52.626;-8.668;2023-04-19T05:55:15;24.23;;;10.45;;
64351;SDS011;50680;52.626;-8.668;2023-04-19T05:57:43;21.05;;;9.50;;
64351;SDS011;50680;52.626;-8.668;2023-04-19T06:00:10;19.02;;;9.50;;
64351;SDS011;50680;52.626;-8.668;2023-04-19T06:02:37;26.75;;;10.07;;
64351;SDS011;50680;52.626;-8.668;2023-04-19T06:05:04;21.65;;;9.68;;
64351;SDS011;50680;52.626;-8.668;2023-04-19T06:10:15;25.20;;;9.50;;
64351;SDS011;50680;52.626;-8.668;2023-04-19T06:12:42;18.73;;;8.65;;
64351;SDS011;50680;52.626;-8.668;2023-04-19T06:15:09;25.23;;;10.05;;
64351;SDS011;50680;52.626;-8.668;2023-04-19T06:17:37;17.00;;;8.90;;
64351;SDS011;50680;52.626;-8.668;2023-04-19T06:20:04;24.02;;;9.32;;
64351;SDS011;50680;52.626;-8.668;2023-04-19T06:22:33;25.05;;;10.18;;
64351;SDS011;50680;52.626;-8.668;2023-04-19T06:25:00;29.48;;;9.43;;
64351;SDS011;50680;52.626;-8.668;2023-04-19T06:27:27;19.90;;;8.55;;
64351;SDS011;50680;52.626;-8.668;2023-04-19T06:29:54;22.88;;;8.95;;
64351;SDS011;50680;52.626;-8.668;2023-04-19T06:32:21;21.10;;;8.02;;
64351;SDS011;50680;52.626;-8.668;2023-04-19T06:34:48;19.95;;;8.65;;
64351;SDS011;50680;52.626;-8.668;2023-04-19T06:37:14;15.77;;;8.10;;
64351;SDS011;50680;52.626;-8.668;2023-04-19T06:39:41;18.20;;;8.52;;
64351;SDS011;50680;52.626;-8.668;2023-04-19T06:42:08;16.20;;;8.15;;
64351;SDS011;50680;52.626;-8.668;2023-04-19T06:44:35;12.68;;;7.70;;
64351;SDS011;50680;52.626;-8.668;2023-04-19T06:47:02;16.95;;;8.32;;
64351;SDS011;50680;52.626;-8.668;2023-04-19T06:49:29;18.83;;;8.63;;
64351;SDS011;50680;52.626;-8.668;2023-04-19T06:51:57;14.07;;;7.07;;
64351;SDS011;50680;52.626;-8.668;2023-04-19T06:54:23;18.30;;;7.95;;
64351;SDS011;50680;52.626;-8.668;2023-04-19T06:56:50;17.20;;;8.00;;
64351;SDS011;50680;52.626;-8.668;2023-04-19T06:59:18;17.92;;;7.70;;
64351;SDS011;50680;52.626;-8.668;2023-04-19T07:01:46;13.45;;;7.88;;
64351;SDS011;50680;52.626;-8.668;2023-04-19T07:04:14;14.73;;;7.30;;
64351;SDS011;50680;52.626;-8.668;2023-04-19T07:06:42;20.70;;;8.55;;
64351;SDS011;50680;52.626;-8.668;2023-04-19T07:09:09;12.50;;;6.85;;
64351;SDS011;50680;52.626;-8.668;2023-04-19T07:11:35;17.55;;;7.43;;
64351;SDS011;50680;52.626;-8.668;2023-04-19T07:14:02;16.38;;;7.57;;
64351;SDS011;50680;52.626;-8.668;2023-04-19T07:16:29;14.68;;;7.65;;
64351;SDS011;50680;52.626;-8.668;2023-04-19T07:18:56;15.90;;;7.70;;
64351;SDS011;50680;52.626;-8.668;2023-04-19T07:21:23;18.73;;;6.78;;
64351;SDS011;50680;52.626;-8.668;2023-04-19T07:23:58;22.42;;;8.00;;
64351;SDS011;50680;52.626;-8.668;2023-04-19T07:26:25;18.33;;;7.65;;
64351;SDS011;50680;52.626;-8.668;2023-04-19T07:28:52;20.70;;;7.43;;
64351;SDS011;50680;52.626;-8.668;2023-04-19T07:31:19;15.00;;;7.05;;
64351;SDS011;50680;52.626;-8.668;2023-04-19T07:33:46;16.23;;;7.78;;
64351;SDS011;50680;52.626;-8.668;2023-04-19T07:36:13;19.45;;;8.05;;
64351;SDS011;50680;52.626;-8.668;2023-04-19T07:38:40;18.27;;;7.70;;
64351;SDS011;50680;52.626;-8.668;2023-04-19T07:41:07;16.55;;;7.22;;
64351;SDS011;50680;52.626;-8.668;2023-04-19T07:43:34;14.35;;;7.75;;
64351;SDS011;50680;52.626;-8.668;2023-04-19T07:46:10;17.23;;;8.23;;
64351;SDS011;50680;52.626;-8.668;2023-04-19T07:48:39;16.70;;;7.55;;
64351;SDS011;50680;52.626;-8.668;2023-04-19T07:51:15;15.85;;;8.07;;
64351;SDS011;50680;52.626;-8.668;2023-04-19T07:53:43;20.30;;;8.20;;
64351;SDS011;50680;52.626;-8.668;2023-04-19T07:56:11;16.80;;;7.68;;
64351;SDS011;50680;52.626;-8.668;2023-04-19T07:58:38;15.55;;;7.18;;
64351;SDS011;50680;52.626;-8.668;2023-04-19T08:01:07;12.55;;;6.82;;
64351;SDS011;50680;52.626;-8.668;2023-04-19T08:03:33;18.67;;;7.43;;
64351;SDS011;50680;52.626;-8.668;2023-04-19T08:06:02;17.77;;;7.80;;
64351;SDS011;50680;52.626;-8.668;2023-04-19T08:08:31;14.75;;;7.47;;
64351;SDS011;50680;52.626;-8.668;2023-04-19T08:10:59;15.98;;;6.80;;
64351;SDS011;50680;52.626;-8.668;2023-04-19T08:13:28;15.18;;;7.28;;
64351;SDS011;50680;52.626;-8.668;2023-04-19T08:15:55;21.80;;;7.43;;
64351;SDS011;50680;52.626;-8.668;2023-04-19T08:18:26;15.00;;;7.30;;
64351;SDS011;50680;52.626;-8.668;2023-04-19T08:20:53;15.50;;;7.80;;
64351;SDS011;50680;52.626;-8.668;2023-04-19T08:23:19;18.63;;;8.45;;
64351;SDS011;50680;52.626;-8.668;2023-04-19T08:25:57;17.65;;;8.05;;
64351;SDS011;50680;52.626;-8.668;2023-04-19T08:28:23;16.45;;;7.63;;
64351;SDS011;50680;52.626;-8.668;2023-04-19T08:30:50;18.55;;;7.45;;
64351;SDS011;50680;52.626;-8.668;2023-04-19T08:33:17;12.23;;;7.50;;
64351;SDS011;50680;52.626;-8.668;2023-04-19T08:35:44;19.98;;;9.00;;
64351;SDS011;50680;52.626;-8.668;2023-04-19T08:38:11;16.00;;;7.93;;
64351;SDS011;50680;52.626;-8.668;2023-04-19T08:40:56;18.25;;;8.80;;
64351;SDS011;50680;52.626;-8.668;2023-04-19T08:43:24;14.32;;;7.20;;
64351;SDS011;50680;52.626;-8.668;2023-04-19T08:45:51;19.52;;;8.02;;
64351;SDS011;50680;52.626;-8.668;2023-04-19T08:48:19;13.23;;;7.18;;
64351;SDS011;50680;52.626;-8.668;2023-04-19T08:50:47;15.82;;;7.35;;
64351;SDS011;50680;52.626;-8.668;2023-04-19T08:53:31;15.63;;;7.63;;
64351;SDS011;50680;52.626;-8.668;2023-04-19T08:55:59;16.80;;;8.05;;
64351;SDS011;50680;52.626;-8.668;2023-04-19T08:58:29;16.67;;;9.20;;
64351;SDS011;50680;52.626;-8.668;2023-04-19T09:01:18;16.40;;;7.93;;
64351;SDS011;50680;52.626;-8.668;2023-04-19T09:04:03;12.57;;;7.18;;
64351;SDS011;50680;52.626;-8.668;2023-04-19T09:06:51;23.03;;;8.20;;
64351;SDS011;50680;52.626;-8.668;2023-04-19T09:09:19;24.63;;;10.32;;
64351;SDS011;50680;52.626;-8.668;2023-04-19T09:11:51;15.05;;;7.45;;
64351;SDS011;50680;52.626;-8.668;2023-04-19T09:14:18;14.43;;;7.50;;
64351;SDS011;50680;52.626;-8.668;2023-04-19T09:16:46;16.30;;;8.73;;
64351;SDS011;50680;52.626;-8.668;2023-04-19T09:19:14;15.05;;;8.70;;
64351;SDS011;50680;52.626;-8.668;2023-04-19T09:21:50;14.90;;;8.30;;
64351;SDS011;50680;52.626;-8.668;2023-04-19T09:24:36;18.13;;;9.18;;
64351;SDS011;50680;52.626;-8.668;2023-04-19T09:27:28;13.25;;;8.02;;
64351;SDS011;50680;52.626;-8.668;2023-04-19T09:29:55;17.05;;;9.13;;
64351;SDS011;50680;52.626;-8.668;2023-04-19T09:32:25;14.80;;;9.45;;
64351;SDS011;50680;52.626;-8.668;2023-04-19T09:34:53;16.90;;;9.90;;
64351;SDS011;50680;52.626;-8.668;2023-04-19T09:37:21;20.85;;;8.98;;
64351;SDS011;50680;52.626;-8.668;2023-04-19T09:40:22;14.98;;;9.18;;
64351;SDS011;50680;52.626;-8.668;2023-04-19T09:42:49;16.98;;;8.30;;
64351;SDS011;50680;52.626;-8.668;2023-04-19T09:45:20;17.60;;;9.38;;
64351;SDS011;50680;52.626;-8.668;2023-04-19T09:48:02;18.60;;;10.25;;
64351;SDS011;50680;52.626;-8.668;2023-04-19T09:50:31;20.73;;;10.25;;
64351;SDS011;50680;52.626;-8.668;2023-04-19T09:53:07;17.40;;;9.20;;
64351;SDS011;50680;52.626;-8.668;2023-04-19T09:55:35;16.13;;;9.82;;
64351;SDS011;50680;52.626;-8.668;2023-04-19T09:58:22;18.17;;;9.93;;
64351;SDS011;50680;52.626;-8.668;2023-04-19T10:00:52;23.10;;;10.35;;
64351;SDS011;50680;52.626;-8.668;2023-04-19T10:03:39;18.63;;;10.38;;
64351;SDS011;50680;52.626;-8.668;2023-04-19T10:06:06;18.00;;;10.45;;
64351;SDS011;50680;52.626;-8.668;2023-04-19T10:08:45;21.67;;;10.00;;
64351;SDS011;50680;52.626;-8.668;2023-04-19T10:11:15;22.90;;;10.63;;
64351;SDS011;50680;52.626;-8.668;2023-04-19T10:13:42;23.45;;;12.00;;
64351;SDS011;50680;52.626;-8.668;2023-04-19T10:16:12;24.75;;;11.40;;
64351;SDS011;50680;52.626;-8.668;2023-04-19T10:18:45;21.48;;;11.75;;
64351;SDS011;50680;52.626;-8.668;2023-04-19T10:21:15;21.48;;;10.32;;
64351;SDS011;50680;52.626;-8.668;2023-04-19T10:23:42;20.60;;;10.73;;
64351;SDS011;50680;52.626;-8.668;2023-04-19T10:26:10;20.48;;;11.63;;
64351;SDS011;50680;52.626;-8.668;2023-04-19T10:28:36;21.58;;;11.57;;
64351;SDS011;50680;52.626;-8.668;2023-04-19T10:31:03;24.70;;;11.98;;
64351;SDS011;50680;52.626;-8.668;2023-04-19T10:33:35;19.42;;;10.80;;
64351;SDS011;50680;52.626;-8.668;2023-04-19T10:36:03;25.70;;;12.02;;
64351;SDS011;50680;52.626;-8.668;2023-04-19T10:38:37;19.98;;;10.88;;
64351;SDS011;50680;52.626;-8.668;2023-04-19T10:41:08;20.50;;;12.13;;
64351;SDS011;50680;52.626;-8.668;2023-04-19T10:43:43;20.50;;;11.48;;
64351;SDS011;50680;52.626;-8.668;2023-04-19T10:46:12;21.67;;;11.68;;
64351;SDS011;50680;52.626;-8.668;2023-04-19T10:48:44;20.63;;;11.60;;
64351;SDS011;50680;52.626;-8.668;2023-04-19T10:51:22;22.83;;;10.90;;
64351;SDS011;50680;52.626;-8.668;2023-04-19T11:04:14;20.17;;;10.88;;
64351;SDS011;50680;52.626;-8.668;2023-04-19T11:09:22;19.52;;;11.40;;
64351;SDS011;50680;52.626;-8.668;2023-04-19T11:11:54;20.80;;;10.75;;
64351;SDS011;50680;52.626;-8.668;2023-04-19T11:14:23;23.90;;;11.70;;
64351;SDS011;50680;52.626;-8.668;2023-04-19T11:16:55;23.30;;;12.05;;
64351;SDS011;50680;52.626;-8.668;2023-04-19T11:19:22;20.60;;;12.43;;
64351;SDS011;50680;52.626;-8.668;2023-04-19T11:21:48;20.08;;;11.73;;
64351;SDS011;50680;52.626;-8.668;2023-04-19T11:24:15;20.45;;;12.38;;
64351;SDS011;50680;52.626;-8.668;2023-04-19T11:26:44;21.38;;;12.70;;
64351;SDS011;50680;52.626;-8.668;2023-04-19T11:29:12;20.67;;;11.93;;
64351;SDS011;50680;52.626;-8.668;2023-04-19T11:31:42;23.60;;;11.25;;
64351;SDS011;50680;52.626;-8.668;2023-04-19T11:34:11;20.27;;;11.63;;
64351;SDS011;50680;52.626;-8.668;2023-04-19T11:36:49;20.45;;;11.13;;
64351;SDS011;50680;52.626;-8.668;2023-04-19T11:39:17;21.20;;;12.15;;
64351;SDS011;50680;52.626;-8.668;2023-04-19T11:41:45;22.25;;;11.98;;
64351;SDS011;50680;52.626;-8.668;2023-04-19T11:44:15;19.58;;;11.10;;
64351;SDS011;50680;52.626;-8.668;2023-04-19T11:49:29;19.30;;;11.65;;
64351;SDS011;50680;52.626;-8.668;2023-04-19T11:51:58;21.02;;;12.05;;
64351;SDS011;50680;52.626;-8.668;2023-04-19T11:54:30;21.42;;;11.85;;
64351;SDS011;50680;52.626;-8.668;2023-04-19T11:57:01;20.92;;;12.18;;
64351;SDS011;50680;52.626;-8.668;2023-04-19T11:59:31;21.75;;;12.00;;
64351;SDS011;50680;52.626;-8.668;2023-04-19T12:02:05;20.77;;;12.13;;
64351;SDS011;50680;52.626;-8.668;2023-04-19T12:04:37;22.00;;;12.35;;
64351;SDS011;50680;52.626;-8.668;2023-04-19T12:07:05;20.08;;;11.52;;
64351;SDS011;50680;52.626;-8.668;2023-04-19T12:09:33;19.52;;;11.77;;
64351;SDS011;50680;52.626;-8.668;2023-04-19T12:12:01;27.20;;;11.88;;
64351;SDS011;50680;52.626;-8.668;2023-04-19T12:14:29;19.60;;;11.13;;
64351;SDS011;50680;52.626;-8.668;2023-04-19T12:19:33;18.67;;;11.55;;
64351;SDS011;50680;52.626;-8.668;2023-04-19T12:22:11;20.20;;;11.70;;
64351;SDS011;50680;52.626;-8.668;2023-04-19T12:24:39;21.23;;;11.48;;
64351;SDS011;50680;52.626;-8.668;2023-04-19T12:27:07;20.40;;;11.80;;
64351;SDS011;50680;52.626;-8.668;2023-04-19T12:29:36;22.60;;;12.02;;
64351;SDS011;50680;52.626;-8.668;2023-04-19T12:32:04;18.70;;;10.93;;
64351;SDS011;50680;52.626;-8.668;2023-04-19T12:34:31;16.35;;;10.57;;
64351;SDS011;50680;52.626;-8.668;2023-04-19T12:36:58;20.75;;;11.55;;
64351;SDS011;50680;52.626;-8.668;2023-04-19T12:39:25;26.02;;;12.38;;
64351;SDS011;50680;52.626;-8.668;2023-04-19T12:41:52;25.20;;;12.85;;
64351;SDS011;50680;52.626;-8.668;2023-04-19T12:44:18;23.27;;;12.25;;
64351;SDS011;50680;52.626;-8.668;2023-04-19T12:46:45;20.70;;;12.25;;
64351;SDS011;50680;52.626;-8.668;2023-04-19T12:49:12;18.77;;;11.30;;
64351;SDS011;50680;52.626;-8.668;2023-04-19T12:51:39;19.65;;;11.95;;
64351;SDS011;50680;52.626;-8.668;2023-04-19T12:54:08;19.48;;;10.70;;
64351;SDS011;50680;52.626;-8.668;2023-04-19T12:56:34;22.50;;;13.13;;
64351;SDS011;50680;52.626;-8.668;2023-04-19T12:59:01;24.13;;;12.60;;
64351;SDS011;50680;52.626;-8.668;2023-04-19T13:01:28;21.70;;;12.48;;
64351;SDS011;50680;52.626;-8.668;2023-04-19T13:03:55;20.85;;;12.38;;
64351;SDS011;50680;52.626;-8.668;2023-04-19T13:06:25;23.17;;;13.23;;
64351;SDS011;50680;52.626;-8.668;2023-04-19T13:08:53;20.30;;;11.65;;
64351;SDS011;50680;52.626;-8.668;2023-04-19T13:11:20;21.55;;;11.23;;
64351;SDS011;50680;52.626;-8.668;2023-04-19T13:13:49;24.98;;;12.63;;
64351;SDS011;50680;52.626;-8.668;2023-04-19T13:16:17;20.15;;;12.90;;
64351;SDS011;50680;52.626;-8.668;2023-04-19T13:18:45;22.42;;;12.98;;
64351;SDS011;50680;52.626;-8.668;2023-04-19T13:21:12;18.42;;;12.82;;
64351;SDS011;50680;52.626;-8.668;2023-04-19T13:23:39;22.92;;;13.45;;
64351;SDS011;50680;52.626;-8.668;2023-04-19T13:26:08;19.05;;;12.13;;
64351;SDS011;50680;52.626;-8.668;2023-04-19T13:28:35;21.70;;;12.93;;
64351;SDS011;50680;52.626;-8.668;2023-04-19T13:31:03;18.92;;;13.25;;
64351;SDS011;50680;52.626;-8.668;2023-04-19T13:33:30;22.45;;;12.75;;
64351;SDS011;50680;52.626;-8.668;2023-04-19T13:35:57;24.70;;;13.75;;
64351;SDS011;50680;52.626;-8.668;2023-04-19T13:38:23;25.40;;;14.18;;
64351;SDS011;50680;52.626;-8.668;2023-04-19T13:40:50;20.85;;;13.05;;
64351;SDS011;50680;52.626;-8.668;2023-04-19T13:43:17;23.00;;;13.55;;
64351;SDS011;50680;52.626;-8.668;2023-04-19T13:45:44;22.67;;;13.73;;
64351;SDS011;50680;52.626;-8.668;2023-04-19T13:48:11;22.58;;;14.75;;
64351;SDS011;50680;52.626;-8.668;2023-04-19T13:50:38;28.88;;;14.80;;
64351;SDS011;50680;52.626;-8.668;2023-04-19T13:53:05;25.00;;;14.63;;
64351;SDS011;50680;52.626;-8.668;2023-04-19T13:55:32;22.20;;;14.02;;
64351;SDS011;50680;52.626;-8.668;2023-04-19T13:57:59;24.08;;;15.23;;
64351;SDS011;50680;52.626;-8.668;2023-04-19T14:00:26;24.23;;;14.38;;
64351;SDS011;50680;52.626;-8.668;2023-04-19T14:02:53;23.63;;;15.50;;
64351;SDS011;50680;52.626;-8.668;2023-04-19T14:05:22;20.58;;;13.43;;
64351;SDS011;50680;52.626;-8.668;2023-04-19T14:07:49;26.77;;;15.40;;
64351;SDS011;50680;52.626;-8.668;2023-04-19T14:10:16;25.80;;;15.50;;
64351;SDS011;50680;52.626;-8.668;2023-04-19T14:12:42;24.42;;;14.93;;
64351;SDS011;50680;52.626;-8.668;2023-04-19T14:15:10;28.15;;;15.80;;
64351;SDS011;50680;52.626;-8.668;2023-04-19T14:17:37;23.20;;;14.38;;
64351;SDS011;50680;52.626;-8.668;2023-04-19T14:20:05;26.67;;;14.80;;
64351;SDS011;50680;52.626;-8.668;2023-04-19T14:22:33;29.70;;;16.23;;
64351;SDS011;50680;52.626;-8.668;2023-04-19T14:25:01;24.00;;;15.60;;
64351;SDS011;50680;52.626;-8.668;2023-04-19T14:27:29;24.52;;;15.27;;
64351;SDS011;50680;52.626;-8.668;2023-04-19T14:29:56;25.73;;;14.48;;
64351;SDS011;50680;52.626;-8.668;2023-04-19T14:32:23;25.67;;;15.38;;
64351;SDS011;50680;52.626;-8.668;2023-04-19T14:34:52;20.58;;;14.50;;
64351;SDS011;50680;52.626;-8.668;2023-04-19T14:37:21;22.10;;;13.75;;
64351;SDS011;50680;52.626;-8.668;2023-04-19T14:39:49;20.70;;;14.00;;
64351;SDS011;50680;52.626;-8.668;2023-04-19T14:42:15;23.73;;;13.63;;